Explorer Of The Seas — C6SE4 — position and weather

sailwx.info

Track history (hours):
 
Tides and Currents Weather Stations Pressure Air Temp Water Temp Dewpoint Dewpoint Depression Visibility Wind Speed Wind Dir Waves Ship Positions

Explorer Of The Seas

Operator: Royal Caribbean Cruises Ltd

Last reported at 2016-Sep-26 08:33 UTC. Time now 2016-Sep-26 10:24 UTC.
Position N 38°38' W 123°51'.

Length 311 m; draft 9.1 m.

Type: Passenger vessel. MMSI: 311316000.

Date/timePositionNaut miles runAvg speedWind from/ knotsBaromVisibWave heightAir tempDewpointWater temp
2016-Sep-26 08:33N 38°38' W 123°51'2214.1
2016-Sep-26 07:00N 39°00' W 123°54'6115.2 300 / 71016.010.8 13.013.013.2
2016-Sep-26 03:00N 39°54' W 124°30'6215.4 360 / 191016.3 12.010.211.6
2016-Sep-25 23:00N 40°54' W 124°48'10615.9 350 / 261017.6 14.7
2016-Sep-25 16:21N 42°39' W 124°60'1026.0
2016-Sep-25 16:00N 42°48' W 124°54'512.3 020 / 201023.0 14.0
2016-Sep-25 15:33N 42°52' W 124°59'1615.7
2016-Sep-25 14:33N 43°07' W 124°56'3115.3
2016-Sep-25 12:33N 43°38' W 124°50'1515.2
2016-Sep-25 11:33N 43°53' W 124°47'814.3
2016-Sep-25 11:00N 44°00' W 124°42'819.2 040 / 201027.027.0 2.013.0 13.0
2016-Sep-25 10:33N 44°08' W 124°44'1615.9
2016-Sep-25 09:33N 44°24' W 124°40'3216.1
2016-Sep-25 07:34N 44°56' W 124°32'2314.7
2016-Sep-25 06:00N 45°18' W 124°24'2517.1 350 / 61028.010.8 13.512.715.2
2016-Sep-25 04:34N 45°43' W 124°24'34 9.6
2016-Sep-25 01:00N 46°06' W 123°48'613.2 320 / 9
2016-Sep-25 00:32N 46°11' W 123°51'0 0.0
2016-Sep-24 22:32N 46°11' W 123°51'0 0.0
2016-Sep-24 21:32N 46°11' W 123°51'0 0.0
2016-Sep-24 19:32N 46°11' W 123°51'0 0.0
2016-Sep-24 18:29N 46°11' W 123°51'0 0.0
2016-Sep-24 17:32N 46°11' W 123°51'0 0.0
2016-Sep-24 16:29N 46°11' W 123°51'6 4.0
2016-Sep-24 15:00N 46°06' W 123°48'1126.1 1028.0
2016-Sep-24 14:33N 46°14' W 123°59'2512.3
2016-Sep-24 12:34N 46°27' W 124°30'1730.1
2016-Sep-24 12:00N 46°42' W 124°42'2517.2 320 / 21025.027.0 2.013.0 14.0
2016-Sep-24 10:33N 47°04' W 124°58'2820.8
2016-Sep-24 09:13N 47°31' W 125°11'4721.4
2016-Sep-24 07:00N 48°18' W 125°06'5114.8 300 / 161022.6 12.511.611.6
2016-Sep-24 03:33N 48°17' W 123°49'1918.7
2016-Sep-24 02:33N 48°10' W 123°24'2018.2
2016-Sep-24 01:29N 48°12' W 122°55'1819.7
2016-Sep-24 00:33N 47°59' W 122°35'23 4.6
2016-Sep-23 19:33N 47°38' W 122°23'0 0.0
2016-Sep-23 17:33N 47°38' W 122°23'0 0.0
2016-Sep-23 16:33N 47°38' W 122°23'0 0.0
2016-Sep-23 15:33N 47°38' W 122°23'0 0.0
2016-Sep-23 13:33N 47°38' W 122°23'35 8.8
2016-Sep-23 09:32N 48°09' W 122°45'712.6
2016-Sep-23 09:00N 48°06' W 122°54'3112.7 140 / 151017.027.0 1.011.0 10.0
2016-Sep-23 06:33N 48°13' W 123°39'3 1.6
2016-Sep-23 04:33N 48°16' W 123°42'1010.0
2016-Sep-23 03:33N 48°19' W 123°28'6 5.7
2016-Sep-23 02:34N 48°24' W 123°25'1 0.6
2016-Sep-23 01:33N 48°23' W 123°24'2 1.6
2016-Sep-23 00:32N 48°25' W 123°24'0 0.0
2016-Sep-22 23:31N 48°25' W 123°24'0 0.0
2016-Sep-22 20:28N 48°25' W 123°24'50 6.3
2016-Sep-22 12:34N 48°27' W 124°39'9617.2
2016-Sep-22 07:00N 46°54' W 125°12'5221.4 360 / 161015.027.0 2.012.0 16.0
2016-Sep-22 04:33N 46°02' W 125°11'1919.4
2016-Sep-22 03:33N 45°42' W 125°11'26519.5
2016-Sep-21 14:00N 41°18' W 124°54'6722.2 330 / 191015.810.8 1.511.6 12.1
2016-Sep-21 11:00N 40°12' W 124°42'9018.0 350 / 291015.027.0 11.0 11.0
2016-Sep-21 06:00N 38°48' W 124°00'815.3 330 / 301013.410.8 12.012.012.4
2016-Sep-21 05:29N 38°42' W 123°53'3618.7
2016-Sep-21 03:33N 38°14' W 123°25'1918.7
2016-Sep-21 02:33N 37°60' W 123°09'38 4.2
2016-Sep-20 17:31N 37°48' W 122°24'0 0.0
2016-Sep-20 14:31N 37°48' W 122°24'0 0.0
2016-Sep-20 13:31N 37°48' W 122°24'0 0.0
2016-Sep-20 10:31N 37°48' W 122°24'0 0.0
2016-Sep-20 08:28N 37°48' W 122°24'0 0.0
2016-Sep-20 07:31N 37°48' W 122°24'0 0.0
2016-Sep-20 06:31N 37°48' W 122°24'0 0.0
2016-Sep-20 02:28N 37°48' W 122°24'0 0.0
2016-Sep-19 23:31N 37°48' W 122°24'0 0.0
2016-Sep-19 19:31N 37°48' W 122°24'0 0.0
2016-Sep-19 18:31N 37°48' W 122°24'0 0.0
2016-Sep-19 16:28N 37°48' W 122°24'0 0.1
2016-Sep-19 14:33N 37°48' W 122°24'1010.0
2016-Sep-19 13:34N 37°46' W 122°36'1313.4
2016-Sep-19 12:34N 37°49' W 122°53'1615.5
2016-Sep-19 11:33N 37°57' W 123°10'3 6.2
2016-Sep-19 11:00N 38°00' W 123°12'2819.7 360 / 201013.027.0 2.012.0 13.0
2016-Sep-19 09:33N 38°22' W 123°35'3215.9
2016-Sep-19 07:33N 38°47' W 123°60'915.1
2016-Sep-19 07:00N 38°54' W 124°06'1516.8 330 / 271015.5 5.4 13.013.012.7
2016-Sep-19 06:07N 39°08' W 124°11'16915.2
2016-Sep-18 19:00N 41°54' W 124°54'12618.0 320 / 51020.2 0.3 13.513.512.0
2016-Sep-18 12:00N 44°00' W 124°42'5510.9 200 / 131016.0 0.0 1.013.0 15.0
2016-Sep-18 07:00N 44°54' W 124°30'7516.8 130 / 101016.0 0.3 1.014.0 15.0
2016-Sep-18 02:33N 46°08' W 124°13'1111.4
2016-Sep-18 01:34N 46°15' W 124°01'7 6.9
2016-Sep-18 00:31N 46°11' W 123°51'0 0.0
2016-Sep-17 22:31N 46°11' W 123°51'0 0.0
2016-Sep-17 21:30N 46°11' W 123°51'0 0.0
2016-Sep-17 20:31N 46°11' W 123°51'0 0.0
2016-Sep-17 19:13N 46°11' W 123°51'16 2.7
2016-Sep-17 13:33N 46°12' W 124°14'1717.3
2016-Sep-17 12:34N 46°26' W 124°29'4220.9
2016-Sep-17 10:33N 47°03' W 124°57'4 6.3
2016-Sep-17 10:00N 47°00' W 124°54'6526.0 230 / 241012.0 5.4 2.015.0 15.0
2016-Sep-17 07:28N 48°04' W 125°14'2114.0
2016-Sep-17 06:00N 48°24' W 125°06'1636.7 150 / 201014.0 5.4 11.510.613.0
2016-Sep-17 05:33N 48°31' W 124°44'2322.5
2016-Sep-17 04:33N 48°22' W 124°13'7418.6
2016-Sep-17 00:34N 47°54' W 122°29'2035.2
2016-Sep-17 00:00N 47°36' W 122°18'4 0.6 020 / 111014.4 14.914.913.7
2016-Sep-16 17:32N 47°38' W 122°23'0 0.0
2016-Sep-16 15:32N 47°38' W 122°23'0 0.0
2016-Sep-16 12:32N 47°38' W 122°23'3310.8
2016-Sep-16 09:28N 48°08' W 122°43'  
Track history (hours):
 
Tides and Currents Weather Stations Pressure Air Temp Water Temp Dewpoint Dewpoint Depression Visibility Wind Speed Wind Dir Waves Ship Positions

Explorer Of The Seas

Operator: Royal Caribbean Cruises Ltd

Last reported at 2016-Sep-26 08:33 UTC. Time now 2016-Sep-26 10:24 UTC.
Position N 38°38' W 123°51'.

Length 311 m; draft 9.1 m.

Type: Passenger vessel. MMSI: 311316000.

Date/timePositionNaut miles runAvg speedWind from/ knotsBaromVisibWave heightAir tempDewpointWater temp
2016-Sep-26 08:33N 38°38' W 123°51'2214.1
2016-Sep-26 07:00N 39°00' W 123°54'6115.2 300 / 71016.010.8 13.013.013.2
2016-Sep-26 03:00N 39°54' W 124°30'6215.4 360 / 191016.3 12.010.211.6
2016-Sep-25 23:00N 40°54' W 124°48'10615.9 350 / 261017.6 14.7
2016-Sep-25 16:21N 42°39' W 124°60'1026.0
2016-Sep-25 16:00N 42°48' W 124°54'512.3 020 / 201023.0 14.0
2016-Sep-25 15:33N 42°52' W 124°59'1615.7
2016-Sep-25 14:33N 43°07' W 124°56'3115.3
2016-Sep-25 12:33N 43°38' W 124°50'1515.2
2016-Sep-25 11:33N 43°53' W 124°47'814.3
2016-Sep-25 11:00N 44°00' W 124°42'819.2 040 / 201027.027.0 2.013.0 13.0
2016-Sep-25 10:33N 44°08' W 124°44'1615.9
2016-Sep-25 09:33N 44°24' W 124°40'3216.1
2016-Sep-25 07:34N 44°56' W 124°32'2314.7
2016-Sep-25 06:00N 45°18' W 124°24'2517.1 350 / 61028.010.8 13.512.715.2
2016-Sep-25 04:34N 45°43' W 124°24'34 9.6
2016-Sep-25 01:00N 46°06' W 123°48'613.2 320 / 9
2016-Sep-25 00:32N 46°11' W 123°51'0 0.0
2016-Sep-24 22:32N 46°11' W 123°51'0 0.0
2016-Sep-24 21:32N 46°11' W 123°51'0 0.0
2016-Sep-24 19:32N 46°11' W 123°51'0 0.0
2016-Sep-24 18:29N 46°11' W 123°51'0 0.0
2016-Sep-24 17:32N 46°11' W 123°51'0 0.0
2016-Sep-24 16:29N 46°11' W 123°51'6 4.0
2016-Sep-24 15:00N 46°06' W 123°48'1126.1 1028.0
2016-Sep-24 14:33N 46°14' W 123°59'2512.3
2016-Sep-24 12:34N 46°27' W 124°30'1730.1
2016-Sep-24 12:00N 46°42' W 124°42'2517.2 320 / 21025.027.0 2.013.0 14.0
2016-Sep-24 10:33N 47°04' W 124°58'2820.8
2016-Sep-24 09:13N 47°31' W 125°11'4721.4
2016-Sep-24 07:00N 48°18' W 125°06'5114.8 300 / 161022.6 12.511.611.6
2016-Sep-24 03:33N 48°17' W 123°49'1918.7
2016-Sep-24 02:33N 48°10' W 123°24'2018.2
2016-Sep-24 01:29N 48°12' W 122°55'1819.7
2016-Sep-24 00:33N 47°59' W 122°35'23 4.6
2016-Sep-23 19:33N 47°38' W 122°23'0 0.0
2016-Sep-23 17:33N 47°38' W 122°23'0 0.0
2016-Sep-23 16:33N 47°38' W 122°23'0 0.0
2016-Sep-23 15:33N 47°38' W 122°23'0 0.0
2016-Sep-23 13:33N 47°38' W 122°23'35 8.8
2016-Sep-23 09:32N 48°09' W 122°45'712.6
2016-Sep-23 09:00N 48°06' W 122°54'3112.7 140 / 151017.027.0 1.011.0 10.0
2016-Sep-23 06:33N 48°13' W 123°39'3 1.6
2016-Sep-23 04:33N 48°16' W 123°42'1010.0
2016-Sep-23 03:33N 48°19' W 123°28'6 5.7
2016-Sep-23 02:34N 48°24' W 123°25'1 0.6
2016-Sep-23 01:33N 48°23' W 123°24'2 1.6
2016-Sep-23 00:32N 48°25' W 123°24'0 0.0
2016-Sep-22 23:31N 48°25' W 123°24'0 0.0
2016-Sep-22 20:28N 48°25' W 123°24'50 6.3
2016-Sep-22 12:34N 48°27' W 124°39'9617.2
2016-Sep-22 07:00N 46°54' W 125°12'5221.4 360 / 161015.027.0 2.012.0 16.0
2016-Sep-22 04:33N 46°02' W 125°11'1919.4
2016-Sep-22 03:33N 45°42' W 125°11'26519.5
2016-Sep-21 14:00N 41°18' W 124°54'6722.2 330 / 191015.810.8 1.511.6 12.1
2016-Sep-21 11:00N 40°12' W 124°42'9018.0 350 / 291015.027.0 11.0 11.0
2016-Sep-21 06:00N 38°48' W 124°00'815.3 330 / 301013.410.8 12.012.012.4
2016-Sep-21 05:29N 38°42' W 123°53'3618.7
2016-Sep-21 03:33N 38°14' W 123°25'1918.7
2016-Sep-21 02:33N 37°60' W 123°09'38 4.2
2016-Sep-20 17:31N 37°48' W 122°24'0 0.0
2016-Sep-20 14:31N 37°48' W 122°24'0 0.0
2016-Sep-20 13:31N 37°48' W 122°24'0 0.0
2016-Sep-20 10:31N 37°48' W 122°24'0 0.0
2016-Sep-20 08:28N 37°48' W 122°24'0 0.0
2016-Sep-20 07:31N 37°48' W 122°24'0 0.0
2016-Sep-20 06:31N 37°48' W 122°24'0 0.0
2016-Sep-20 02:28N 37°48' W 122°24'0 0.0
2016-Sep-19 23:31N 37°48' W 122°24'0 0.0
2016-Sep-19 19:31N 37°48' W 122°24'0 0.0
2016-Sep-19 18:31N 37°48' W 122°24'0 0.0
2016-Sep-19 16:28N 37°48' W 122°24'0 0.1
2016-Sep-19 14:33N 37°48' W 122°24'1010.0
2016-Sep-19 13:34N 37°46' W 122°36'1313.4
2016-Sep-19 12:34N 37°49' W 122°53'1615.5
2016-Sep-19 11:33N 37°57' W 123°10'3 6.2
2016-Sep-19 11:00N 38°00' W 123°12'2819.7 360 / 201013.027.0 2.012.0 13.0
2016-Sep-19 09:33N 38°22' W 123°35'3215.9
2016-Sep-19 07:33N 38°47' W 123°60'915.1
2016-Sep-19 07:00N 38°54' W 124°06'1516.8 330 / 271015.5 5.4 13.013.012.7
2016-Sep-19 06:07N 39°08' W 124°11'16915.2
2016-Sep-18 19:00N 41°54' W 124°54'12618.0 320 / 51020.2 0.3 13.513.512.0
2016-Sep-18 12:00N 44°00' W 124°42'5510.9 200 / 131016.0 0.0 1.013.0 15.0
2016-Sep-18 07:00N 44°54' W 124°30'7516.8 130 / 101016.0 0.3 1.014.0 15.0
2016-Sep-18 02:33N 46°08' W 124°13'1111.4
2016-Sep-18 01:34N 46°15' W 124°01'7 6.9
2016-Sep-18 00:31N 46°11' W 123°51'0 0.0
2016-Sep-17 22:31N 46°11' W 123°51'0 0.0
2016-Sep-17 21:30N 46°11' W 123°51'0 0.0
2016-Sep-17 20:31N 46°11' W 123°51'0 0.0
2016-Sep-17 19:13N 46°11' W 123°51'16 2.7
2016-Sep-17 13:33N 46°12' W 124°14'1717.3
2016-Sep-17 12:34N 46°26' W 124°29'4220.9
2016-Sep-17 10:33N 47°03' W 124°57'4 6.3
2016-Sep-17 10:00N 47°00' W 124°54'6526.0 230 / 241012.0 5.4 2.015.0 15.0
2016-Sep-17 07:28N 48°04' W 125°14'2114.0
2016-Sep-17 06:00N 48°24' W 125°06'1636.7 150 / 201014.0 5.4 11.510.613.0
2016-Sep-17 05:33N 48°31' W 124°44'2322.5
2016-Sep-17 04:33N 48°22' W 124°13'7418.6
2016-Sep-17 00:34N 47°54' W 122°29'2035.2
2016-Sep-17 00:00N 47°36' W 122°18'4 0.6 020 / 111014.4 14.914.913.7
2016-Sep-16 17:32N 47°38' W 122°23'0 0.0
2016-Sep-16 15:32N 47°38' W 122°23'0 0.0
2016-Sep-16 12:32N 47°38' W 122°23'3310.8
2016-Sep-16 09:28N 48°08' W 122°43'  

Dump ship's entire track history